Time;durP1;ratioP1;P1;durP2;ratioP2;P2;SDS_P1;SDS_P2;PMS_P1;PMS_P2;Temp;Humidity;BMP_temperature;BMP_pressure;BME280_temperature;BME280_humidity;BME280_pressure;Samples;Min_cycle;Max_cycle;Signal;HPM_P1;HPM_P2
2023/11/16 00:01:50;;;;;;;;;;;231.10;2252.80;;;;;;4977525;28;20272;-79
2023/11/16 00:04:16;;;;;;;;;;;231.10;2252.80;;;;;;4979661;28;19906;-79
2023/11/16 00:06:42;;;;;;;;;;;231.10;2252.80;;;;;;4979016;28;19905;-79
2023/11/16 00:09:08;;;;;;;;;;;231.10;2252.80;;;;;;4979065;28;19906;-79
2023/11/16 00:11:33;;;;;;;;;;;231.00;2252.80;;;;;;4987852;28;19969;-80
2023/11/16 00:13:59;;;;;;;;;;;231.00;2252.80;;;;;;4978877;28;20271;-80
2023/11/16 00:16:25;;;;;;;;;;;231.00;2252.80;;;;;;4970174;28;19906;-80
2023/11/16 00:18:51;;;;;;;;;;;230.90;2252.80;;;;;;4977776;28;19924;-79
2023/11/16 00:21:16;;;;;;;;;;;230.80;2252.80;;;;;;4964484;28;19922;-80
2023/11/16 00:23:42;;;;;;;;;;;230.80;2252.80;;;;;;4982977;28;20024;-79
2023/11/16 00:26:11;;;;;;;;;;;230.80;2252.80;;;;;;4976475;28;19913;-79
2023/11/16 00:28:37;;;;;;;;;;;230.90;2252.80;;;;;;4961561;28;19973;-79
2023/11/16 00:31:02;;;;;;;;;;;230.90;2252.80;;;;;;4973490;28;20279;-79
2023/11/16 00:33:29;;;;;;;;;;;231.00;2252.80;;;;;;4971455;28;20364;-79
2023/11/16 00:35:58;;;;;;;;;;;231.00;2252.80;;;;;;4974399;28;19914;-80
2023/11/16 00:38:27;;;;;;;;;;;231.10;2252.80;;;;;;4966495;28;20264;-80
2023/11/16 00:40:55;;;;;;;;;;;231.10;2252.80;;;;;;4973347;28;19906;-80
2023/11/16 00:43:21;;;;;;;;;;;231.20;2252.80;;;;;;4983066;28;19933;-80
2023/11/16 00:45:46;;;;;;;;;;;231.20;2252.80;;;;;;4957998;28;20372;-80
2023/11/16 00:48:12;;;;;;;;;;;231.30;2252.80;;;;;;4968726;28;20353;-80
2023/11/16 00:50:37;;;;;;;;;;;231.30;2252.80;;;;;;4970984;28;19914;-79
2023/11/16 00:53:03;;;;;;;;;;;231.30;2252.80;;;;;;4964399;28;19964;-79
2023/11/16 00:55:31;;;;;;;;;;;231.30;2252.80;;;;;;4958918;28;19913;-79
2023/11/16 00:57:57;;;;;;;;;;;231.30;2252.80;;;;;;4969079;28;19906;-79
2023/11/16 01:00:23;;;;;;;;;;;231.30;2252.80;;;;;;4976618;28;20315;-79
2023/11/16 01:02:49;;;;;;;;;;;231.30;2252.80;;;;;;4974777;28;20036;-80
2023/11/16 01:05:17;;;;;;;;;;;231.30;2252.80;;;;;;4974879;28;19914;-79
2023/11/16 01:07:43;;;;;;;;;;;231.30;2252.80;;;;;;4970243;28;19913;-80
2023/11/16 01:10:15;;;;;;;;;;;231.30;2252.80;;;;;;4964378;28;19961;-78
2023/11/16 01:12:43;;;;;;;;;;;231.30;2252.80;;;;;;4967510;28;19918;-80
2023/11/16 01:15:10;;;;;;;;;;;231.30;2252.80;;;;;;4961074;28;19910;-79
2023/11/16 01:17:36;;;;;;;;;;;256.00;2252.80;;;;;;4973080;28;19913;-80
2023/11/16 01:20:06;;;;;;;;;;;256.00;2252.80;;;;;;4974355;28;19910;-79
2023/11/16 01:22:40;;;;;;;;;;;256.00;2252.80;;;;;;4973100;28;19914;-80
2023/11/16 01:25:14;;;;;;;;;;;256.10;2252.80;;;;;;4969743;28;19906;-80
2023/11/16 01:27:43;;;;;;;;;;;256.10;2252.80;;;;;;4967140;28;20262;-80
2023/11/16 01:30:10;;;;;;;;;;;256.10;2252.80;;;;;;4988800;28;19952;-80
2023/11/16 01:32:35;;;;;;;;;;;256.10;2252.80;;;;;;4968976;28;19918;-80
2023/11/16 01:35:03;;;;;;;;;;;256.00;2252.80;;;;;;4983116;28;19913;-80
2023/11/16 01:37:29;;;;;;;;;;;256.00;2252.80;;;;;;4963323;28;19907;-79
2023/11/16 01:39:54;;;;;;;;;;;256.00;2252.80;;;;;;4968409;28;19906;-79
2023/11/16 01:42:20;;;;;;;;;;;256.00;2252.80;;;;;;4969654;28;20005;-80
2023/11/16 01:44:46;;;;;;;;;;;256.10;2252.80;;;;;;4965124;28;19906;-79
2023/11/16 01:47:13;;;;;;;;;;;256.10;2252.80;;;;;;4973873;28;20403;-80
2023/11/16 01:49:40;;;;;;;;;;;231.00;2252.80;;;;;;4974761;28;19917;-80
2023/11/16 01:52:06;;;;;;;;;;;256.10;2252.80;;;;;;4974234;28;20016;-80
2023/11/16 01:54:34;;;;;;;;;;;256.10;2252.80;;;;;;4974618;28;19906;-80
2023/11/16 01:57:00;;;;;;;;;;;256.10;2252.80;;;;;;4975522;28;19906;-80
2023/11/16 01:59:26;;;;;;;;;;;256.10;2252.80;;;;;;4975680;28;19912;-80
2023/11/16 02:01:52;;;;;;;;;;;256.10;2252.80;;;;;;4973911;28;19913;-80
2023/11/16 02:04:19;;;;;;;;;;;256.00;2252.80;;;;;;4974374;28;20354;-79
2023/11/16 02:06:44;;;;;;;;;;;256.00;2252.80;;;;;;4975638;28;19906;-80
2023/11/16 02:09:11;;;;;;;;;;;256.00;2252.80;;;;;;4974374;28;19910;-80
2023/11/16 02:11:37;;;;;;;;;;;256.00;2252.80;;;;;;4975997;28;19961;-79
2023/11/16 02:14:02;;;;;;;;;;;256.00;2252.80;;;;;;4974264;28;19910;-80
2023/11/16 02:16:28;;;;;;;;;;;256.00;2252.80;;;;;;4974252;28;20245;-78
2023/11/16 02:18:54;;;;;;;;;;;256.00;2252.80;;;;;;4975570;28;19906;-80
2023/11/16 02:21:20;;;;;;;;;;;231.30;2252.80;;;;;;4987765;28;19925;-79
2023/11/16 02:23:47;;;;;;;;;;;231.30;2252.80;;;;;;4994858;28;19909;-78
2023/11/16 02:26:13;;;;;;;;;;;231.30;2252.80;;;;;;4994474;28;19913;-80
2023/11/16 02:28:38;;;;;;;;;;;231.30;2252.80;;;;;;4977638;28;20241;-80
2023/11/16 02:31:04;;;;;;;;;;;231.30;2252.80;;;;;;4977229;28;19988;-79
2023/11/16 02:33:30;;;;;;;;;;;231.30;2252.80;;;;;;4977182;28;20387;-80
2023/11/16 02:35:57;;;;;;;;;;;256.00;2252.80;;;;;;4994393;28;19906;-79
2023/11/16 02:38:22;;;;;;;;;;;256.00;2252.80;;;;;;4977478;28;19912;-79
2023/11/16 02:40:51;;;;;;;;;;;256.00;2252.80;;;;;;4977233;28;20000;-79
2023/11/16 02:43:21;;;;;;;;;;;256.10;2252.80;;;;;;4977215;28;19960;-79
2023/11/16 02:45:48;;;;;;;;;;;256.10;2252.80;;;;;;4980604;28;19906;-80
2023/11/16 02:48:15;;;;;;;;;;;256.10;2252.80;;;;;;4976910;28;19948;-79
2023/11/16 02:50:41;;;;;;;;;;;256.10;2252.80;;;;;;4977034;28;19914;-79
2023/11/16 02:53:08;;;;;;;;;;;256.10;2252.80;;;;;;4976709;28;20354;-80
2023/11/16 02:55:34;;;;;;;;;;;256.10;2252.80;;;;;;4976721;28;19925;-78
2023/11/16 02:58:00;;;;;;;;;;;256.10;2252.80;;;;;;4977084;28;19992;-80
2023/11/16 03:00:26;;;;;;;;;;;256.10;2252.80;;;;;;4976904;28;19956;-79
2023/11/16 03:02:51;;;;;;;;;;;256.10;2252.80;;;;;;4977222;28;19906;-79
2023/11/16 03:05:23;;;;;;;;;;;256.20;2252.80;;;;;;4994237;28;19905;-81
2023/11/16 03:07:52;;;;;;;;;;;256.10;2252.80;;;;;;4976879;28;19949;-80
2023/11/16 03:10:18;;;;;;;;;;;256.00;2252.80;;;;;;4976982;28;19906;-79
2023/11/16 03:12:46;;;;;;;;;;;256.10;2252.80;;;;;;4978800;28;19968;-79
2023/11/16 03:15:12;;;;;;;;;;;256.10;2252.80;;;;;;4997690;28;19906;-80
2023/11/16 03:17:38;;;;;;;;;;;256.00;2252.80;;;;;;4980359;28;19905;-79
2023/11/16 03:20:04;;;;;;;;;;;256.00;2252.80;;;;;;4980250;28;19972;-81
2023/11/16 03:22:30;;;;;;;;;;;256.00;2252.80;;;;;;4979638;28;19922;-80
2023/11/16 03:24:55;;;;;;;;;;;256.00;2252.80;;;;;;4980244;28;19905;-80
2023/11/16 03:27:21;;;;;;;;;;;256.00;2252.80;;;;;;4980172;28;19906;-79
2023/11/16 03:29:47;;;;;;;;;;;256.00;2252.80;;;;;;4997532;28;20364;-79
2023/11/16 03:32:13;;;;;;;;;;;256.00;2252.80;;;;;;4997530;28;19913;-80
2023/11/16 03:34:39;;;;;;;;;;;256.00;2252.80;;;;;;4980042;28;19906;-79
2023/11/16 03:37:04;;;;;;;;;;;256.10;2252.80;;;;;;4980296;28;19906;-79
2023/11/16 03:39:34;;;;;;;;;;;256.10;2252.80;;;;;;4980253;28;19909;-80
2023/11/16 03:42:01;;;;;;;;;;;256.10;2252.80;;;;;;4979625;28;20378;-80
2023/11/16 03:44:26;;;;;;;;;;;256.10;2252.80;;;;;;4980019;28;20360;-79
2023/11/16 03:46:55;;;;;;;;;;;256.10;2252.80;;;;;;4979626;28;19906;-79
2023/11/16 03:49:21;;;;;;;;;;;256.10;2252.80;;;;;;4979868;28;19913;-80
2023/11/16 03:51:47;;;;;;;;;;;231.30;2252.80;;;;;;4979564;28;19917;-80
2023/11/16 03:54:13;;;;;;;;;;;231.00;2252.80;;;;;;4997302;28;20000;-80
2023/11/16 03:56:39;;;;;;;;;;;256.00;2252.80;;;;;;4997002;28;19906;-80
2023/11/16 03:59:04;;;;;;;;;;;256.00;2252.80;;;;;;4979868;28;19909;-80
2023/11/16 04:01:34;;;;;;;;;;;231.30;2252.80;;;;;;4979583;28;19909;-80
2023/11/16 04:04:00;;;;;;;;;;;231.30;2252.80;;;;;;4979453;28;19912;-80
2023/11/16 04:06:26;;;;;;;;;;;231.20;2252.80;;;;;;4979433;28;19906;-80
2023/11/16 04:08:52;;;;;;;;;;;231.20;2252.80;;;;;;4979462;28;19906;-80
2023/11/16 04:11:19;;;;;;;;;;;231.20;2252.80;;;;;;4979067;28;19905;-80
2023/11/16 04:13:46;;;;;;;;;;;231.20;2252.80;;;;;;4996847;28;19921;-80
2023/11/16 04:16:17;;;;;;;;;;;231.20;2252.80;;;;;;4979329;28;19909;-79
2023/11/16 04:18:42;;;;;;;;;;;231.20;2252.80;;;;;;4979244;28;19906;-79
2023/11/16 04:21:11;;;;;;;;;;;231.20;2252.80;;;;;;4978971;28;19925;-80
2023/11/16 04:23:38;;;;;;;;;;;231.20;2252.80;;;;;;4978654;28;19910;-80
2023/11/16 04:26:08;;;;;;;;;;;231.20;2252.80;;;;;;4979075;28;19906;-79
2023/11/16 04:28:34;;;;;;;;;;;231.20;2252.80;;;;;;4978783;28;19905;-80
2023/11/16 04:30:59;;;;;;;;;;;231.20;2252.80;;;;;;4979037;28;20272;-80
2023/11/16 04:33:25;;;;;;;;;;;231.20;2252.80;;;;;;4978895;28;19921;-80
2023/11/16 04:35:52;;;;;;;;;;;231.20;2252.80;;;;;;4979316;28;20017;-79
2023/11/16 04:38:20;;;;;;;;;;;231.20;2252.80;;;;;;4978833;28;19945;-80
2023/11/16 04:40:45;;;;;;;;;;;231.10;2252.80;;;;;;4996339;28;19906;-80
2023/11/16 04:43:15;;;;;;;;;;;231.10;2252.80;;;;;;4979188;28;19905;-79
2023/11/16 04:45:42;;;;;;;;;;;231.10;2252.80;;;;;;4978717;28;19917;-78
2023/11/16 04:48:07;;;;;;;;;;;231.10;2252.80;;;;;;4978848;28;19905;-80
2023/11/16 04:50:33;;;;;;;;;;;231.00;2252.80;;;;;;4978631;28;19913;-80
2023/11/16 04:52:58;;;;;;;;;;;231.00;2252.80;;;;;;4978533;28;20283;-79
2023/11/16 04:55:25;;;;;;;;;;;231.00;2252.80;;;;;;4978652;28;19909;-80
2023/11/16 04:57:53;;;;;;;;;;;231.00;2252.80;;;;;;4978709;28;19905;-79
2023/11/16 05:00:18;;;;;;;;;;;230.90;2252.80;;;;;;4978422;28;20368;-80
2023/11/16 05:02:44;;;;;;;;;;;230.90;2252.80;;;;;;4978573;28;19912;-78
2023/11/16 05:05:10;;;;;;;;;;;230.80;2252.80;;;;;;4978085;28;19920;-80
2023/11/16 05:07:35;;;;;;;;;;;230.80;2252.80;;;;;;4978493;28;19906;-80
2023/11/16 05:10:01;;;;;;;;;;;230.70;2252.80;;;;;;4978199;28;20026;-79
2023/11/16 05:12:27;;;;;;;;;;;230.70;2252.80;;;;;;4978367;28;19910;-80
2023/11/16 05:14:56;;;;;;;;;;;230.60;2252.80;;;;;;4977884;28;20279;-80
2023/11/16 05:17:21;;;;;;;;;;;230.60;2252.80;;;;;;4995762;28;19905;-79
2023/11/16 05:19:47;;;;;;;;;;;230.60;2252.80;;;;;;4995080;28;19964;-80
2023/11/16 05:22:13;;;;;;;;;;;230.70;2252.80;;;;;;4995612;28;19917;-79
2023/11/16 05:24:39;;;;;;;;;;;230.60;2252.80;;;;;;4984606;28;19912;-78
2023/11/16 05:27:04;;;;;;;;;;;230.60;2252.80;;;;;;5002216;28;19972;-80
2023/11/16 05:29:31;;;;;;;;;;;230.60;2252.80;;;;;;4977188;28;19913;-79
2023/11/16 05:31:57;;;;;;;;;;;230.60;2252.80;;;;;;4977983;28;19928;-80
2023/11/16 05:34:23;;;;;;;;;;;230.60;2252.80;;;;;;4979805;28;20344;-79
2023/11/16 05:36:48;;;;;;;;;;;230.60;2252.80;;;;;;4987958;28;19905;-77
2023/11/16 05:39:16;;;;;;;;;;;230.60;2252.80;;;;;;4984826;28;19913;-77
2023/11/16 05:41:42;;;;;;;;;;;230.60;2252.80;;;;;;4970911;28;19905;-77
2023/11/16 05:44:07;;;;;;;;;;;230.60;2252.80;;;;;;4976466;28;20380;-79
2023/11/16 05:46:33;;;;;;;;;;;230.60;2252.80;;;;;;4976808;28;19914;-79
2023/11/16 05:48:59;;;;;;;;;;;230.60;2252.80;;;;;;4969339;28;19906;-79
2023/11/16 05:51:24;;;;;;;;;;;230.60;2252.80;;;;;;4971847;28;19925;-80
2023/11/16 05:53:50;;;;;;;;;;;230.60;2252.80;;;;;;4973715;28;19922;-79
2023/11/16 05:56:15;;;;;;;;;;;230.60;2252.80;;;;;;4977237;28;20316;-79
2023/11/16 05:58:42;;;;;;;;;;;230.60;2252.80;;;;;;4975930;28;19979;-79
2023/11/16 06:01:13;;;;;;;;;;;230.60;2252.80;;;;;;4967999;28;19906;-80
2023/11/16 06:03:39;;;;;;;;;;;230.60;2252.80;;;;;;4970211;28;19964;-79
2023/11/16 06:06:05;;;;;;;;;;;230.60;2252.80;;;;;;4970930;28;19949;-79
2023/11/16 06:08:31;;;;;;;;;;;230.60;2252.80;;;;;;4969026;28;19910;-77
2023/11/16 06:10:57;;;;;;;;;;;230.60;2252.80;;;;;;4971528;28;19933;-77
2023/11/16 06:13:23;;;;;;;;;;;230.60;2252.80;;;;;;4992902;28;20415;-77
2023/11/16 06:15:49;;;;;;;;;;;230.60;2252.80;;;;;;4993477;28;20407;-79
2023/11/16 06:18:15;;;;;;;;;;;230.70;2252.80;;;;;;4992823;28;19906;-80
2023/11/16 06:20:41;;;;;;;;;;;230.70;2252.80;;;;;;4986203;28;20005;-79
2023/11/16 06:23:07;;;;;;;;;;;230.70;2252.80;;;;;;4989772;28;19910;-80
2023/11/16 06:25:33;;;;;;;;;;;230.80;2252.80;;;;;;4970961;28;19918;-78
2023/11/16 06:27:58;;;;;;;;;;;230.90;2252.80;;;;;;4991780;28;19996;-83
2023/11/16 06:30:24;;;;;;;;;;;230.90;2252.80;;;;;;4974029;28;19910;-84
2023/11/16 06:32:49;;;;;;;;;;;231.00;2252.80;;;;;;4986934;28;20303;-87
2023/11/16 06:35:15;;;;;;;;;;;231.00;2252.80;;;;;;4974169;28;19960;-80
2023/11/16 06:37:41;;;;;;;;;;;231.10;2252.80;;;;;;4993128;28;19914;-84
2023/11/16 06:40:09;;;;;;;;;;;231.20;2252.80;;;;;;4968201;28;19913;-85
2023/11/16 06:42:36;;;;;;;;;;;231.30;2252.80;;;;;;4992901;28;19912;-81
2023/11/16 06:45:05;;;;;;;;;;;256.10;2252.80;;;;;;4988379;28;19945;-82
2023/11/16 06:47:32;;;;;;;;;;;256.20;2252.80;;;;;;4973542;28;19909;-79
2023/11/16 06:49:57;;;;;;;;;;;256.30;2252.80;;;;;;4980182;28;19960;-84
2023/11/16 06:52:26;;;;;;;;;;;256.30;2252.80;;;;;;4976678;28;19918;-88
2023/11/16 06:54:53;;;;;;;;;;;256.40;2252.80;;;;;;4973517;28;20335;-85
2023/11/16 06:57:22;;;;;;;;;;;256.50;2252.80;;;;;;4979608;28;19910;-85
2023/11/16 06:59:53;;;;;;;;;;;256.50;2252.80;;;;;;4978375;28;19913;-86
2023/11/16 07:02:22;;;;;;;;;;;256.50;2252.80;;;;;;4977130;28;19906;-88
2023/11/16 07:04:50;;;;;;;;;;;256.50;2252.80;;;;;;4977141;28;19906;-83
2023/11/16 07:07:16;;;;;;;;;;;256.50;2252.80;;;;;;4973986;28;19944;-84
2023/11/16 07:09:46;;;;;;;;;;;256.30;2252.80;;;;;;4976155;28;19906;-87
2023/11/16 07:12:12;;;;;;;;;;;256.70;2252.80;;;;;;4972200;28;19964;-87
2023/11/16 07:14:37;;;;;;;;;;;256.90;2252.80;;;;;;4992414;28;20064;-85
2023/11/16 07:17:03;;;;;;;;;;;281.70;2278.40;;;;;;4992375;28;19968;-85
2023/11/16 07:19:29;;;;;;;;;;;281.80;2278.40;;;;;;4977774;28;19917;-83
2023/11/16 07:21:54;;;;;;;;;;;282.00;2278.40;;;;;;4971747;28;19929;-80
2023/11/16 07:24:20;;;;;;;;;;;282.20;2278.40;;;;;;4975109;28;20532;-82
2023/11/16 07:26:47;;;;;;;;;;;282.20;2278.40;;;;;;4978449;28;19964;-83
2023/11/16 07:29:12;;;;;;;;;;;282.40;2278.40;;;;;;4979841;28;19906;-84
2023/11/16 07:31:40;;;;;;;;;;;282.50;2278.40;;;;;;4980005;28;19912;-86
2023/11/16 07:34:05;;;;;;;;;;;307.30;2304.00;;;;;;4979377;28;20008;-84
2023/11/16 07:36:31;;;;;;;;;;;307.40;2304.00;;;;;;4979867;28;20395;-79
2023/11/16 07:38:57;;;;;;;;;;;307.40;2304.00;;;;;;4969854;28;20355;-79
2023/11/16 07:41:28;;;;;;;;;;;307.50;2304.00;;;;;;4977811;28;19913;-82
2023/11/16 07:43:54;;;;;;;;;;;307.50;2304.00;;;;;;4979156;28;20059;-80
2023/11/16 07:46:19;;;;;;;;;;;307.60;2304.00;;;;;;4991262;28;20376;-78
2023/11/16 07:48:45;;;;;;;;;;;307.60;2304.00;;;;;;4967514;28;20288;-78
2023/11/16 07:51:12;;;;;;;;;;;307.60;2304.00;;;;;;4982878;28;20399;-77
2023/11/16 07:53:40;;;;;;;;;;;307.70;2304.00;;;;;;4991446;28;19918;-77
2023/11/16 07:56:06;;;;;;;;;;;308.00;2304.00;;;;;;4971855;28;19906;-78
2023/11/16 07:58:33;;;;;;;;;;;307.70;2304.00;;;;;;4989010;28;19906;-78
2023/11/16 08:01:04;;;;;;;;;;;307.70;2304.00;;;;;;4987948;28;19952;-78
2023/11/16 08:03:42;;;;;;;;;;;307.80;2304.00;;;;;;4969716;28;20339;-77
2023/11/16 08:06:14;;;;;;;;;;;307.70;2304.00;;;;;;4990099;28;19906;-76
2023/11/16 08:08:45;;;;;;;;;;;307.80;2304.00;;;;;;4967076;28;20284;-76
2023/11/16 08:11:14;;;;;;;;;;;307.80;2304.00;;;;;;4992683;28;19913;-77
2023/11/16 08:13:45;;;;;;;;;;;307.80;2304.00;;;;;;4972092;28;20036;-76
2023/11/16 08:16:12;;;;;;;;;;;307.90;2304.00;;;;;;4971460;28;19988;-77
2023/11/16 08:18:38;;;;;;;;;;;308.00;2304.00;;;;;;4991872;28;20283;-76
2023/11/16 08:21:07;;;;;;;;;;;308.00;2304.00;;;;;;4989860;28;19993;-81
2023/11/16 08:23:39;;;;;;;;;;;308.00;2304.00;;;;;;4990863;28;19917;-77
2023/11/16 08:26:11;;;;;;;;;;;308.00;2304.00;;;;;;4967206;28;19909;-78
2023/11/16 08:28:42;;;;;;;;;;;308.00;2304.00;;;;;;4974535;28;19945;-80
2023/11/16 08:31:07;;;;;;;;;;;308.10;2304.00;;;;;;4978225;28;19993;-79
2023/11/16 08:33:33;;;;;;;;;;;332.80;2329.60;;;;;;4971410;28;20008;-79
2023/11/16 08:36:00;;;;;;;;;;;332.80;2329.60;;;;;;4974842;28;19905;-79
2023/11/16 08:38:26;;;;;;;;;;;332.90;2329.60;;;;;;4965304;28;20263;-81
2023/11/16 08:40:55;;;;;;;;;;;332.90;2329.60;;;;;;4967452;28;19961;-80
2023/11/16 08:43:23;;;;;;;;;;;332.90;2329.60;;;;;;4977170;28;19918;-82
2023/11/16 08:45:49;;;;;;;;;;;332.90;2329.60;;;;;;4971290;28;19913;-79
2023/11/16 08:48:16;;;;;;;;;;;332.90;2329.60;;;;;;4973210;28;20065;-79
2023/11/16 08:50:43;;;;;;;;;;;333.00;2329.60;;;;;;4994635;28;19910;-79
2023/11/16 08:53:09;;;;;;;;;;;333.00;2329.60;;;;;;4977895;28;19924;-78
2023/11/16 08:55:35;;;;;;;;;;;333.10;2329.60;;;;;;4971324;28;19906;-82
2023/11/16 08:58:01;;;;;;;;;;;333.20;2329.60;;;;;;4968156;28;19921;-77
2023/11/16 09:00:37;;;;;;;;;;;333.20;2329.60;;;;;;4975199;28;19913;-79
2023/11/16 09:03:04;;;;;;;;;;;333.40;2329.60;;;;;;4968900;28;19912;-79
2023/11/16 09:05:35;;;;;;;;;;;333.50;2329.60;;;;;;4973900;28;19988;-78
2023/11/16 09:08:01;;;;;;;;;;;333.60;2329.60;;;;;;4970398;28;19914;-82
2023/11/16 09:10:27;;;;;;;;;;;333.70;2329.60;;;;;;4976436;28;19985;-77
2023/11/16 09:12:53;;;;;;;;;;;358.40;2329.60;;;;;;4972951;28;19921;-81
2023/11/16 09:15:20;;;;;;;;;;;358.50;2329.60;;;;;;4978999;28;19909;-80
2023/11/16 09:17:46;;;;;;;;;;;358.50;2329.60;;;;;;4977308;28;20055;-81
2023/11/16 09:20:12;;;;;;;;;;;358.70;2329.60;;;;;;4975488;28;19914;-78
2023/11/16 09:22:38;;;;;;;;;;;358.90;2329.60;;;;;;4991755;28;19917;-80
2023/11/16 09:25:06;;;;;;;;;;;359.00;2329.60;;;;;;4973807;28;20272;-80
2023/11/16 09:27:38;;;;;;;;;;;359.00;2329.60;;;;;;4977425;28;19928;-78
2023/11/16 09:30:05;;;;;;;;;;;359.30;2329.60;;;;;;4974406;28;19916;-80
2023/11/16 09:32:31;;;;;;;;;;;384.20;2329.60;;;;;;4972655;28;19910;-79
2023/11/16 09:34:58;;;;;;;;;;;384.50;2329.60;;;;;;4976382;28;19914;-80
2023/11/16 09:37:29;;;;;;;;;;;384.90;2329.60;;;;;;4993802;28;19906;-80
2023/11/16 09:39:55;;;;;;;;;;;409.60;2355.20;;;;;;4973389;28;19910;-81
2023/11/16 09:42:24;;;;;;;;;;;410.00;2355.20;;;;;;4971037;28;19910;-79
2023/11/16 09:44:55;;;;;;;;;;;410.00;2355.20;;;;;;4974946;28;19906;-78
2023/11/16 09:47:32;;;;;;;;;;;410.40;2355.20;;;;;;4987181;28;19914;-78
2023/11/16 09:49:58;;;;;;;;;;;435.20;2355.20;;;;;;4985782;28;19953;-79
2023/11/16 09:52:29;;;;;;;;;;;435.40;2304.00;;;;;;4983657;28;19961;-79
2023/11/16 09:54:59;;;;;;;;;;;435.70;2278.40;;;;;;4984484;28;19913;-77
2023/11/16 09:57:27;;;;;;;;;;;436.00;2227.20;;;;;;4974546;28;20367;-79
2023/11/16 09:59:56;;;;;;;;;;;436.10;2150.40;;;;;;4976509;28;19909;-81
2023/11/16 10:02:25;;;;;;;;;;;436.10;2124.80;;;;;;4989217;28;20056;-81
2023/11/16 10:04:53;;;;;;;;;;;460.90;2073.60;;;;;;4972686;28;20356;-80
2023/11/16 10:07:25;;;;;;;;;;;461.20;2099.20;;;;;;4989488;28;19959;-80
2023/11/16 10:09:53;;;;;;;;;;;461.40;2022.40;;;;;;4985681;28;20287;-82
2023/11/16 10:12:20;;;;;;;;;;;461.60;1996.80;;;;;;4990800;28;20355;-81
2023/11/16 10:14:51;;;;;;;;;;;461.60;2048.00;;;;;;4987339;28;19906;-80
2023/11/16 10:17:20;;;;;;;;;;;461.60;1945.60;;;;;;4964510;28;20091;-82
2023/11/16 10:19:46;;;;;;;;;;;486.40;1945.60;;;;;;4972814;28;20008;-83
2023/11/16 10:22:11;;;;;;;;;;;486.70;1920.00;;;;;;4990489;28;20431;-81
2023/11/16 10:24:37;;;;;;;;;;;486.70;1894.40;;;;;;4990038;28;19913;-79
2023/11/16 10:27:03;;;;;;;;;;;486.70;1920.00;;;;;;4994094;28;20280;-85
2023/11/16 10:29:29;;;;;;;;;;;486.90;1894.40;;;;;;4990824;28;19906;-78
2023/11/16 10:31:56;;;;;;;;;;;486.90;1868.80;;;;;;4972881;28;20003;-77
2023/11/16 10:34:23;;;;;;;;;;;486.80;1868.80;;;;;;4976802;28;19909;-78
2023/11/16 10:36:49;;;;;;;;;;;487.00;1817.60;;;;;;4973785;28;20371;-79
2023/11/16 10:39:15;;;;;;;;;;;487.10;1843.20;;;;;;4984915;28;19906;-78
2023/11/16 10:41:41;;;;;;;;;;;487.20;1817.60;;;;;;4966917;28;19913;-79
2023/11/16 10:44:07;;;;;;;;;;;486.90;1817.60;;;;;;4976017;28;19906;-78
2023/11/16 10:46:33;;;;;;;;;;;487.00;1843.20;;;;;;4966107;28;19910;-78
2023/11/16 10:48:59;;;;;;;;;;;487.00;1817.60;;;;;;4990809;28;20398;-79
2023/11/16 10:51:25;;;;;;;;;;;487.10;1792.00;;;;;;4990879;28;20275;-78
2023/11/16 10:53:52;;;;;;;;;;;487.00;1817.60;;;;;;4987469;28;19988;-78
2023/11/16 10:56:18;;;;;;;;;;;487.10;1766.40;;;;;;4988535;28;19906;-79
2023/11/16 10:58:44;;;;;;;;;;;487.20;1817.60;;;;;;4965972;28;19930;-78
2023/11/16 11:01:14;;;;;;;;;;;487.30;1766.40;;;;;;4979925;28;19945;-78
2023/11/16 11:03:39;;;;;;;;;;;487.00;1766.40;;;;;;4973446;28;19913;-91
2023/11/16 11:06:07;;;;;;;;;;;486.80;1766.40;;;;;;4973616;28;19909;-76
2023/11/16 11:08:36;;;;;;;;;;;486.70;1817.60;;;;;;4978851;28;19913;-75
2023/11/16 11:11:07;;;;;;;;;;;486.70;1817.60;;;;;;4985744;28;19906;-76
2023/11/16 11:13:33;;;;;;;;;;;486.80;1792.00;;;;;;4971110;28;19920;-76
2023/11/16 11:16:05;;;;;;;;;;;486.70;1792.00;;;;;;4962578;28;19992;-77
2023/11/16 11:18:31;;;;;;;;;;;486.90;1792.00;;;;;;4969303;28;19979;-77
2023/11/16 11:21:09;;;;;;;;;;;486.90;1766.40;;;;;;4970287;28;19918;-78
2023/11/16 11:23:38;;;;;;;;;;;486.90;1766.40;;;;;;4969115;28;19980;-78
2023/11/16 11:26:05;;;;;;;;;;;486.90;1715.20;;;;;;4989951;28;19910;-78
2023/11/16 11:28:35;;;;;;;;;;;486.90;1664.00;;;;;;4988803;28;19913;-77
2023/11/16 11:31:04;;;;;;;;;;;487.10;1689.60;;;;;;4990917;28;20364;-77
2023/11/16 11:33:34;;;;;;;;;;;486.70;1715.20;;;;;;4973603;28;19967;-77
2023/11/16 11:36:00;;;;;;;;;;;487.00;1689.60;;;;;;4984227;28;19952;-77
2023/11/16 11:38:30;;;;;;;;;;;487.00;1664.00;;;;;;4970995;28;19909;-78
2023/11/16 11:40:56;;;;;;;;;;;487.00;1664.00;;;;;;4991624;28;20372;-77
2023/11/16 11:43:24;;;;;;;;;;;486.70;1638.40;;;;;;4991405;28;20004;-78
2023/11/16 11:45:52;;;;;;;;;;;486.80;1638.40;;;;;;4971221;28;20248;-78
2023/11/16 11:48:18;;;;;;;;;;;486.80;1587.20;;;;;;4991431;28;20364;-77
2023/11/16 11:50:44;;;;;;;;;;;486.90;1638.40;;;;;;4969563;28;20339;-77
2023/11/16 11:53:16;;;;;;;;;;;486.70;1612.80;;;;;;4985829;28;19918;-77
2023/11/16 11:55:48;;;;;;;;;;;486.80;1612.80;;;;;;4989030;28;20291;-77
2023/11/16 11:58:13;;;;;;;;;;;486.70;1612.80;;;;;;4993924;28;19914;-78
2023/11/16 12:00:49;;;;;;;;;;;486.60;1587.20;;;;;;4992555;28;19909;-76
2023/11/16 12:03:16;;;;;;;;;;;486.40;1587.20;;;;;;4978220;28;20364;-76
2023/11/16 12:05:42;;;;;;;;;;;461.70;1561.60;;;;;;4993111;28;19913;-76
2023/11/16 12:08:10;;;;;;;;;;;461.30;1587.20;;;;;;4993751;28;19910;-76
2023/11/16 12:10:36;;;;;;;;;;;461.50;1536.00;;;;;;4992299;28;19906;-77
2023/11/16 12:13:04;;;;;;;;;;;461.40;1612.80;;;;;;4989787;28;19914;-77
2023/11/16 12:15:29;;;;;;;;;;;461.40;1638.40;;;;;;4986973;28;20000;-75
2023/11/16 12:17:58;;;;;;;;;;;461.40;1612.80;;;;;;4994692;28;20000;-77
2023/11/16 12:20:24;;;;;;;;;;;461.40;1638.40;;;;;;4975769;28;19921;-77
2023/11/16 12:22:52;;;;;;;;;;;461.20;1689.60;;;;;;4987332;28;19936;-76
2023/11/16 12:25:21;;;;;;;;;;;461.10;1664.00;;;;;;4989176;28;19906;-77
2023/11/16 12:27:47;;;;;;;;;;;460.90;1689.60;;;;;;4992880;28;19905;-77
2023/11/16 12:30:19;;;;;;;;;;;460.80;1740.80;;;;;;4984064;28;19913;-77
2023/11/16 12:32:45;;;;;;;;;;;436.10;1792.00;;;;;;4972049;28;19957;-76
2023/11/16 12:35:11;;;;;;;;;;;460.90;1792.00;;;;;;4975749;28;19952;-76
2023/11/16 12:37:37;;;;;;;;;;;436.00;1792.00;;;;;;4993585;28;19942;-77
2023/11/16 12:40:09;;;;;;;;;;;436.00;1817.60;;;;;;4977003;28;19964;-76
2023/11/16 12:42:37;;;;;;;;;;;435.90;1817.60;;;;;;4975179;28;20279;-76
2023/11/16 12:45:03;;;;;;;;;;;435.80;1843.20;;;;;;4986201;28;19949;-76
2023/11/16 12:47:29;;;;;;;;;;;435.70;1868.80;;;;;;4992596;28;19944;-76
2023/11/16 12:49:55;;;;;;;;;;;435.60;1843.20;;;;;;4974406;28;19914;-76
2023/11/16 12:52:21;;;;;;;;;;;435.60;1868.80;;;;;;4986803;28;19924;-76
2023/11/16 12:54:46;;;;;;;;;;;435.60;1868.80;;;;;;4991821;28;19909;-76
2023/11/16 12:57:12;;;;;;;;;;;435.50;1868.80;;;;;;4992971;28;19961;-76
2023/11/16 12:59:39;;;;;;;;;;;435.50;1894.40;;;;;;4989353;28;20370;-76
2023/11/16 13:02:05;;;;;;;;;;;435.50;1843.20;;;;;;4977481;28;20409;-76
2023/11/16 13:04:31;;;;;;;;;;;435.40;1843.20;;;;;;4978123;28;19910;-76
2023/11/16 13:06:57;;;;;;;;;;;435.40;1894.40;;;;;;4993254;28;19928;-76
2023/11/16 13:09:24;;;;;;;;;;;435.30;1894.40;;;;;;4990541;28;19961;-76
2023/11/16 13:11:50;;;;;;;;;;;435.30;1894.40;;;;;;4992474;28;19905;-76
2023/11/16 13:14:16;;;;;;;;;;;435.20;1894.40;;;;;;4975875;28;19922;-76
2023/11/16 13:16:42;;;;;;;;;;;435.20;1894.40;;;;;;4989570;28;19933;-76
2023/11/16 13:19:08;;;;;;;;;;;410.50;1894.40;;;;;;4982622;28;19949;-76
2023/11/16 13:21:33;;;;;;;;;;;410.40;2252.80;;;;;;4986860;28;20469;-76
2023/11/16 13:23:59;;;;;;;;;;;410.40;1894.40;;;;;;4985824;28;19916;-76
2023/11/16 13:26:25;;;;;;;;;;;410.40;1920.00;;;;;;4986187;28;19929;-76
2023/11/16 13:28:52;;;;;;;;;;;410.40;1894.40;;;;;;4990629;28;20367;-76
2023/11/16 13:31:18;;;;;;;;;;;410.30;1920.00;;;;;;4989223;28;19956;-76
2023/11/16 13:33:45;;;;;;;;;;;410.30;1920.00;;;;;;4994252;28;19914;-76
2023/11/16 13:36:11;;;;;;;;;;;410.30;1945.60;;;;;;4996067;28;19909;-76
2023/11/16 13:38:36;;;;;;;;;;;410.20;1945.60;;;;;;4992336;28;19960;-76
2023/11/16 13:41:04;;;;;;;;;;;410.20;1920.00;;;;;;4980178;28;19914;-77